Willow Glen, Louisiana
Current Conditions -  °F | °C
As of 3:53 PM on Tuesday 21 Oct 2014 (Local Time) from KAEX Reporting Station
Clear Clear  
Wind Chill: 81°   Ceiling: Unl
Heat Index: 82°   Visibility: 10mi
Dew Point: 60°   Wind: 8mph
Humidity: 49%   Direction: 60°ENE
Pressure: 29.99"   Gusts: NA
Location:  31.2081°N, 92.3683°W
Report Text: KAEX 212053Z AUTO 06007KT 10SM CLR 27/16 A2999 RMK AO2 SLP159 T02720156 56023
Loading
Personal Weather Stations






























Interactive Weather Map
Tropical Storm Tracking
New forecast layout! Learn more

10-Day Weather Forecast

Advertisements
Track Severe Weather on mobile